sensor_id;sensor_type;location;lat;lon;timestamp;P1;P2;P0
74434;PMS7003;62867;52.038;29.256;2022-11-20T00:04:02;26;18.2;10
74434;PMS7003;62867;52.038;29.256;2022-11-20T00:09:02;24.2;17.2;9.6
74434;PMS7003;62867;52.038;29.256;2022-11-20T00:14:12;25.8;18.8;10
74434;PMS7003;62867;52.038;29.256;2022-11-20T00:19:14;26.8;19.2;10
74434;PMS7003;62867;52.038;29.256;2022-11-20T00:24:22;24.8;20.2;10.2
74434;PMS7003;62867;52.038;29.256;2022-11-20T00:29:14;28;20;11
74434;PMS7003;62867;52.038;29.256;2022-11-20T00:34:03;29;23.4;13.4
74434;PMS7003;62867;52.038;29.256;2022-11-20T00:39:14;25.4;19.2;10.2
74434;PMS7003;62867;52.038;29.256;2022-11-20T00:44:02;23.8;17.8;10
74434;PMS7003;62867;52.038;29.256;2022-11-20T00:49:02;23.4;18;10.2
74434;PMS7003;62867;52.038;29.256;2022-11-20T00:54:02;26;18.4;10.2
74434;PMS7003;62867;52.038;29.256;2022-11-20T00:59:24;34.8;25.4;13.8
74434;PMS7003;62867;52.038;29.256;2022-11-20T01:04:02;26;17.8;10.6
74434;PMS7003;62867;52.038;29.256;2022-11-20T01:09:13;25;17.8;9.8
74434;PMS7003;62867;52.038;29.256;2022-11-20T01:14:03;20.8;16;9.6
74434;PMS7003;62867;52.038;29.256;2022-11-20T01:19:26;21.2;16.2;9
74434;PMS7003;62867;52.038;29.256;2022-11-20T01:24:03;20.6;16;9.2
74434;PMS7003;62867;52.038;29.256;2022-11-20T01:29:28;21.3;16.3;9
74434;PMS7003;62867;52.038;29.256;2022-11-20T01:34:07;24.6;16.2;9.8
74434;PMS7003;62867;52.038;29.256;2022-11-20T01:39:07;22.8;18.2;10
74434;PMS7003;62867;52.038;29.256;2022-11-20T01:44:06;25.4;18.6;9.4
74434;PMS7003;62867;52.038;29.256;2022-11-20T01:49:17;26.2;19.2;10
74434;PMS7003;62867;52.038;29.256;2022-11-20T01:54:29;22;17.6;9.6
74434;PMS7003;62867;52.038;29.256;2022-11-20T01:59:07;25.8;21;11.2
74434;PMS7003;62867;52.038;29.256;2022-11-20T02:04:06;25.4;19.4;10
74434;PMS7003;62867;52.038;29.256;2022-11-20T02:09:06;25.4;17.8;10.8
74434;PMS7003;62867;52.038;29.256;2022-11-20T02:14:06;27.2;20.6;11.6
74434;PMS7003;62867;52.038;29.256;2022-11-20T02:19:09;25.4;18.6;11.2
74434;PMS7003;62867;52.038;29.256;2022-11-20T02:24:07;22.8;16.6;9.2
74434;PMS7003;62867;52.038;29.256;2022-11-20T02:29:15;28.5;19.5;10.8
74434;PMS7003;62867;52.038;29.256;2022-11-20T02:34:54;24.6;18.4;10.8
74434;PMS7003;62867;52.038;29.256;2022-11-20T02:39:06;27.6;20.8;11.8
74434;PMS7003;62867;52.038;29.256;2022-11-20T02:44:06;26;20;11.2
74434;PMS7003;62867;52.038;29.256;2022-11-20T02:49:06;29;20.2;11.4
74434;PMS7003;62867;52.038;29.256;2022-11-20T02:54:06;28.8;20.8;10.6
74434;PMS7003;62867;52.038;29.256;2022-11-20T02:59:26;24.8;19;10.6
74434;PMS7003;62867;52.038;29.256;2022-11-20T03:04:26;23;17.6;10.2
74434;PMS7003;62867;52.038;29.256;2022-11-20T03:09:06;24;19;10.4
74434;PMS7003;62867;52.038;29.256;2022-11-20T03:14:18;25.4;19.4;10.2
74434;PMS7003;62867;52.038;29.256;2022-11-20T03:19:06;24.2;18.8;11
74434;PMS7003;62867;52.038;29.256;2022-11-20T03:24:30;23.6;17.8;9.2
74434;PMS7003;62867;52.038;29.256;2022-11-20T03:29:06;25.5;21;10.3
74434;PMS7003;62867;52.038;29.256;2022-11-20T03:34:07;25.8;19.8;10.2
74434;PMS7003;62867;52.038;29.256;2022-11-20T03:39:06;24.8;18.8;10.6
74434;PMS7003;62867;52.038;29.256;2022-11-20T03:44:16;24.8;18.8;10.4
74434;PMS7003;62867;52.038;29.256;2022-11-20T03:49:06;25.8;18;10
74434;PMS7003;62867;52.038;29.256;2022-11-20T03:54:07;21.6;17.4;10.4
74434;PMS7003;62867;52.038;29.256;2022-11-20T03:59:06;22.8;17;10
74434;PMS7003;62867;52.038;29.256;2022-11-20T04:04:06;25.2;18.6;9.4
74434;PMS7003;62867;52.038;29.256;2022-11-20T04:09:16;25;18.8;9.8
74434;PMS7003;62867;52.038;29.256;2022-11-20T04:14:18;24.6;19.2;10.8
74434;PMS7003;62867;52.038;29.256;2022-11-20T04:19:08;28.6;19.4;11.6
74434;PMS7003;62867;52.038;29.256;2022-11-20T04:24:12;24.6;16.4;9.8
74434;PMS7003;62867;52.038;29.256;2022-11-20T04:29:28;25;19.8;11
74434;PMS7003;62867;52.038;29.256;2022-11-20T04:34:40;22.8;17.8;10.6
74434;PMS7003;62867;52.038;29.256;2022-11-20T04:39:28;22;17.2;9.4
74434;PMS7003;62867;52.038;29.256;2022-11-20T04:44:06;26;20.2;10.4
74434;PMS7003;62867;52.038;29.256;2022-11-20T04:49:14;27.4;20;10.4
74434;PMS7003;62867;52.038;29.256;2022-11-20T04:54:24;24.6;19.6;10.6
74434;PMS7003;62867;52.038;29.256;2022-11-20T04:59:30;23.4;18;9.6
74434;PMS7003;62867;52.038;29.256;2022-11-20T05:04:06;25.6;18.2;10.4
74434;PMS7003;62867;52.038;29.256;2022-11-20T05:09:06;26;19.8;11.2
74434;PMS7003;62867;52.038;29.256;2022-11-20T05:14:14;32.4;22.8;11.8
74434;PMS7003;62867;52.038;29.256;2022-11-20T05:19:44;26.2;20;11.4
74434;PMS7003;62867;52.038;29.256;2022-11-20T05:24:06;26.4;20.4;11.2
74434;PMS7003;62867;52.038;29.256;2022-11-20T05:29:18;33;24.2;13.4
74434;PMS7003;62867;52.038;29.256;2022-11-20T05:34:16;44.8;34.3;20.3
74434;PMS7003;62867;52.038;29.256;2022-11-20T05:39:14;36.2;29;16.2
74434;PMS7003;62867;52.038;29.256;2022-11-20T05:44:06;32;23.8;13.2
74434;PMS7003;62867;52.038;29.256;2022-11-20T05:49:16;46.8;35.4;20.4
74434;PMS7003;62867;52.038;29.256;2022-11-20T05:54:38;39.2;33.2;19.4
74434;PMS7003;62867;52.038;29.256;2022-11-20T05:59:14;50.2;38;23
74434;PMS7003;62867;52.038;29.256;2022-11-20T06:04:14;45;34.8;19
74434;PMS7003;62867;52.038;29.256;2022-11-20T06:09:06;43.4;33.4;18
74434;PMS7003;62867;52.038;29.256;2022-11-20T06:14:06;39.4;32.4;18
74434;PMS7003;62867;52.038;29.256;2022-11-20T06:19:18;40.8;30.6;17.4
74434;PMS7003;62867;52.038;29.256;2022-11-20T06:24:06;40.6;30.6;17.2
74434;PMS7003;62867;52.038;29.256;2022-11-20T06:29:06;37;28;15
74434;PMS7003;62867;52.038;29.256;2022-11-20T06:34:30;34.3;25;13.8
74434;PMS7003;62867;52.038;29.256;2022-11-20T06:39:06;35.4;27.2;15.8
74434;PMS7003;62867;52.038;29.256;2022-11-20T06:44:16;39.8;30.4;17.2
74434;PMS7003;62867;52.038;29.256;2022-11-20T06:49:32;34.2;26.2;14.6
74434;PMS7003;62867;52.038;29.256;2022-11-20T06:54:06;45;29.2;17.6
74434;PMS7003;62867;52.038;29.256;2022-11-20T06:59:16;50;39.2;22
74434;PMS7003;62867;52.038;29.256;2022-11-20T07:04:42;42.6;32.8;18.6
74434;PMS7003;62867;52.038;29.256;2022-11-20T07:09:06;30.8;23.8;13.8
74434;PMS7003;62867;52.038;29.256;2022-11-20T07:14:26;29.2;23.6;13.6
74434;PMS7003;62867;52.038;29.256;2022-11-20T07:19:28;28.4;22.4;12.2
74434;PMS7003;62867;52.038;29.256;2022-11-20T07:24:06;33.2;22.8;13
74434;PMS7003;62867;52.038;29.256;2022-11-20T07:29:18;36.6;29;16.4
74434;PMS7003;62867;52.038;29.256;2022-11-20T07:34:06;31.8;24.3;14.3
74434;PMS7003;62867;52.038;29.256;2022-11-20T07:39:06;33.6;25.4;13.8
74434;PMS7003;62867;52.038;29.256;2022-11-20T07:44:16;29.6;24.8;14.6
74434;PMS7003;62867;52.038;29.256;2022-11-20T07:49:06;29;21.2;12.6
74434;PMS7003;62867;52.038;29.256;2022-11-20T07:54:06;26.2;22.2;12.6
74434;PMS7003;62867;52.038;29.256;2022-11-20T07:59:26;31;24.2;14
74434;PMS7003;62867;52.038;29.256;2022-11-20T08:04:06;29.8;22.8;14.2
74434;PMS7003;62867;52.038;29.256;2022-11-20T08:09:06;24.4;20.4;12.4
74434;PMS7003;62867;52.038;29.256;2022-11-20T08:14:06;30.8;23.8;14.8
74434;PMS7003;62867;52.038;29.256;2022-11-20T08:19:06;29.2;23.2;13.8
74434;PMS7003;62867;52.038;29.256;2022-11-20T08:24:18;27.8;22.2;13.2
74434;PMS7003;62867;52.038;29.256;2022-11-20T08:29:16;26.8;21.8;12.4
74434;PMS7003;62867;52.038;29.256;2022-11-20T08:34:16;27;21.8;13.5
74434;PMS7003;62867;52.038;29.256;2022-11-20T08:39:16;29.4;23.6;13.8
74434;PMS7003;62867;52.038;29.256;2022-11-20T08:44:07;26;20.8;11.8
74434;PMS7003;62867;52.038;29.256;2022-11-20T08:49:28;28.8;22.2;13
74434;PMS7003;62867;52.038;29.256;2022-11-20T08:54:28;28.2;22.8;12.4
74434;PMS7003;62867;52.038;29.256;2022-11-20T08:59:16;32;25;14.6
74434;PMS7003;62867;52.038;29.256;2022-11-20T09:04:16;34.4;25.8;15
74434;PMS7003;62867;52.038;29.256;2022-11-20T09:09:12;34.4;27.8;15.4
74434;PMS7003;62867;52.038;29.256;2022-11-20T09:14:06;31;25;13.4
74434;PMS7003;62867;52.038;29.256;2022-11-20T09:19:16;35.6;27;15
74434;PMS7003;62867;52.038;29.256;2022-11-20T09:24:06;31.4;23.6;14.8
74434;PMS7003;62867;52.038;29.256;2022-11-20T09:29:26;32.2;26.8;15.4
74434;PMS7003;62867;52.038;29.256;2022-11-20T09:34:14;46;35.5;22.3
74434;PMS7003;62867;52.038;29.256;2022-11-20T09:39:06;41.6;34.6;20.6
74434;PMS7003;62867;52.038;29.256;2022-11-20T09:44:07;35.4;25.6;15.6
74434;PMS7003;62867;52.038;29.256;2022-11-20T09:49:13;29.6;22.6;13.2
74434;PMS7003;62867;52.038;29.256;2022-11-20T09:54:15;35.4;26;15.6
74434;PMS7003;62867;52.038;29.256;2022-11-20T09:59:07;41.4;32.2;20
74434;PMS7003;62867;52.038;29.256;2022-11-20T10:04:09;38.8;31.4;20.4
74434;PMS7003;62867;52.038;29.256;2022-11-20T10:09:14;35.8;30.4;19
74434;PMS7003;62867;52.038;29.256;2022-11-20T10:14:19;34.6;28.4;17.2
74434;PMS7003;62867;52.038;29.256;2022-11-20T10:19:20;33.6;28;16
74434;PMS7003;62867;52.038;29.256;2022-11-20T10:24:23;30.2;24.6;14.6
74434;PMS7003;62867;52.038;29.256;2022-11-20T10:29:17;39.2;30.8;17.6
74434;PMS7003;62867;52.038;29.256;2022-11-20T10:34:18;33.4;28;17.2
74434;PMS7003;62867;52.038;29.256;2022-11-20T10:39:17;37.8;28.3;16
74434;PMS7003;62867;52.038;29.256;2022-11-20T10:44:09;29.4;23.4;13.8
74434;PMS7003;62867;52.038;29.256;2022-11-20T10:49:26;26.4;20.6;11.4
74434;PMS7003;62867;52.038;29.256;2022-11-20T10:54:10;27.6;22.8;13.2
74434;PMS7003;62867;52.038;29.256;2022-11-20T10:59:38;30;20.2;11.4
74434;PMS7003;62867;52.038;29.256;2022-11-20T11:04:07;28;22;11.8
74434;PMS7003;62867;52.038;29.256;2022-11-20T11:09:08;27.6;21;11.8
74434;PMS7003;62867;52.038;29.256;2022-11-20T11:14:16;29.4;20.6;11.2
74434;PMS7003;62867;52.038;29.256;2022-11-20T11:19:16;24.4;20.2;11
74434;PMS7003;62867;52.038;29.256;2022-11-20T11:24:25;26.6;20.2;11.6
74434;PMS7003;62867;52.038;29.256;2022-11-20T11:29:15;29.4;22;12.4
74434;PMS7003;62867;52.038;29.256;2022-11-20T11:34:16;26.8;21.6;12.8
74434;PMS7003;62867;52.038;29.256;2022-11-20T11:39:17;22.3;17.8;9.5
74434;PMS7003;62867;52.038;29.256;2022-11-20T11:44:17;31.4;23.4;14
74434;PMS7003;62867;52.038;29.256;2022-11-20T11:49:14;37;26.8;16.6
74434;PMS7003;62867;52.038;29.256;2022-11-20T11:54:10;38;32.8;19.4
74434;PMS7003;62867;52.038;29.256;2022-11-20T11:59:09;28.2;23.4;12.8
74434;PMS7003;62867;52.038;29.256;2022-11-20T12:04:09;44.2;31.8;19.8
74434;PMS7003;62867;52.038;29.256;2022-11-20T12:09:32;35.2;24.8;15.2
74434;PMS7003;62867;52.038;29.256;2022-11-20T12:14:30;31;22.2;12
74434;PMS7003;62867;52.038;29.256;2022-11-20T12:19:08;27;24.6;13.8
74434;PMS7003;62867;52.038;29.256;2022-11-20T12:24:43;31.4;24.4;15
74434;PMS7003;62867;52.038;29.256;2022-11-20T12:29:18;32.4;24.8;15
74434;PMS7003;62867;52.038;29.256;2022-11-20T12:34:19;47.4;34.4;20.8
74434;PMS7003;62867;52.038;29.256;2022-11-20T12:39:19;46.8;35.8;21.5
74434;PMS7003;62867;52.038;29.256;2022-11-20T12:44:32;34.4;27.2;14.2
74434;PMS7003;62867;52.038;29.256;2022-11-20T12:49:09;34;25.8;14
74434;PMS7003;62867;52.038;29.256;2022-11-20T12:54:36;29.8;22.6;13.4
74434;PMS7003;62867;52.038;29.256;2022-11-20T12:59:13;28.8;22;13
74434;PMS7003;62867;52.038;29.256;2022-11-20T13:04:08;30.6;21.6;12.4
74434;PMS7003;62867;52.038;29.256;2022-11-20T13:09:06;24.4;19.2;11.8
74434;PMS7003;62867;52.038;29.256;2022-11-20T13:14:09;27;22.8;12.6
74434;PMS7003;62867;52.038;29.256;2022-11-20T13:19:07;39;30.4;16.6
74434;PMS7003;62867;52.038;29.256;2022-11-20T13:24:07;32.6;26;14.4
74434;PMS7003;62867;52.038;29.256;2022-11-20T13:29:08;35.2;24.6;13.8
74434;PMS7003;62867;52.038;29.256;2022-11-20T13:34:06;32.4;23.2;12.8
74434;PMS7003;62867;52.038;29.256;2022-11-20T13:39:38;35;27.8;14.8
74434;PMS7003;62867;52.038;29.256;2022-11-20T13:44:29;32.8;26;15.8
74434;PMS7003;62867;52.038;29.256;2022-11-20T13:49:17;32.8;24.4;14.6
74434;PMS7003;62867;52.038;29.256;2022-11-20T13:54:11;28.8;22.8;13.6
74434;PMS7003;62867;52.038;29.256;2022-11-20T13:59:08;30.6;23.6;14.2
74434;PMS7003;62867;52.038;29.256;2022-11-20T14:04:06;27.4;22.6;12.2
74434;PMS7003;62867;52.038;29.256;2022-11-20T14:09:27;31.4;22.6;13.2
74434;PMS7003;62867;52.038;29.256;2022-11-20T14:14:18;32.6;23.8;13.8
74434;PMS7003;62867;52.038;29.256;2022-11-20T14:19:23;37;26.6;15.6
74434;PMS7003;62867;52.038;29.256;2022-11-20T14:24:26;33.6;26.2;14.8
74434;PMS7003;62867;52.038;29.256;2022-11-20T14:29:10;36.8;28.8;15
74434;PMS7003;62867;52.038;29.256;2022-11-20T14:34:10;32.6;26;14.4
74434;PMS7003;62867;52.038;29.256;2022-11-20T14:39:08;35.8;27;15.3
74434;PMS7003;62867;52.038;29.256;2022-11-20T14:44:08;33.2;25.8;13.6
74434;PMS7003;62867;52.038;29.256;2022-11-20T14:49:07;33.2;23.6;13.6
74434;PMS7003;62867;52.038;29.256;2022-11-20T14:54:08;34.4;25.6;14
74434;PMS7003;62867;52.038;29.256;2022-11-20T14:59:22;34.2;28;15.8
74434;PMS7003;62867;52.038;29.256;2022-11-20T15:04:26;35.2;26.2;14.2
74434;PMS7003;62867;52.038;29.256;2022-11-20T15:09:12;29;23.4;12.2
74434;PMS7003;62867;52.038;29.256;2022-11-20T15:14:08;33.8;25.2;13.6
74434;PMS7003;62867;52.038;29.256;2022-11-20T15:19:46;34;26.4;15
74434;PMS7003;62867;52.038;29.256;2022-11-20T15:24:07;31.4;25.6;13.4
74434;PMS7003;62867;52.038;29.256;2022-11-20T15:29:30;30.6;23.2;13.2
74434;PMS7003;62867;52.038;29.256;2022-11-20T15:34:08;32.6;24.6;12
74434;PMS7003;62867;52.038;29.256;2022-11-20T15:39:34;33;23.6;12.4
74434;PMS7003;62867;52.038;29.256;2022-11-20T15:44:06;34;26.8;14.3
74434;PMS7003;62867;52.038;29.256;2022-11-20T15:49:38;34;24;13.8
74434;PMS7003;62867;52.038;29.256;2022-11-20T15:54:19;34;24;14.2
74434;PMS7003;62867;52.038;29.256;2022-11-20T15:59:06;33.6;25.2;14
74434;PMS7003;62867;52.038;29.256;2022-11-20T16:04:24;37.8;29.4;16.8
74434;PMS7003;62867;52.038;29.256;2022-11-20T16:09:07;34.6;25;14.8
74434;PMS7003;62867;52.038;29.256;2022-11-20T16:14:16;37;27.2;15.8
74434;PMS7003;62867;52.038;29.256;2022-11-20T16:19:28;41.8;30.2;16.6
74434;PMS7003;62867;52.038;29.256;2022-11-20T16:24:07;33.4;26.8;14.4
74434;PMS7003;62867;52.038;29.256;2022-11-20T16:29:06;35.4;27;15
74434;PMS7003;62867;52.038;29.256;2022-11-20T16:34:07;34.4;28.4;15.2
74434;PMS7003;62867;52.038;29.256;2022-11-20T16:39:26;37.4;30.2;15
74434;PMS7003;62867;52.038;29.256;2022-11-20T16:44:07;35.8;27.5;15.5
74434;PMS7003;62867;52.038;29.256;2022-11-20T16:49:10;31.6;24;12.6
74434;PMS7003;62867;52.038;29.256;2022-11-20T16:54:14;32.6;25.4;14.6
74434;PMS7003;62867;52.038;29.256;2022-11-20T16:59:14;36;26.6;13.8
74434;PMS7003;62867;52.038;29.256;2022-11-20T17:04:48;36.4;29.4;17
74434;PMS7003;62867;52.038;29.256;2022-11-20T17:09:15;36.6;27.8;16.2
74434;PMS7003;62867;52.038;29.256;2022-11-20T17:14:07;34.6;26.6;14.6
74434;PMS7003;62867;52.038;29.256;2022-11-20T17:19:06;32.2;27.2;15
74434;PMS7003;62867;52.038;29.256;2022-11-20T17:24:14;32;23.2;13.4
74434;PMS7003;62867;52.038;29.256;2022-11-20T17:29:26;32.2;25.4;14.4
74434;PMS7003;62867;52.038;29.256;2022-11-20T17:34:16;32;23.8;13.2
74434;PMS7003;62867;52.038;29.256;2022-11-20T17:39:06;33;23.2;13.8
74434;PMS7003;62867;52.038;29.256;2022-11-20T17:44:14;32.5;25;13.8
74434;PMS7003;62867;52.038;29.256;2022-11-20T17:49:06;31.6;24.8;14
74434;PMS7003;62867;52.038;29.256;2022-11-20T17:54:26;29.2;23.4;13.4
74434;PMS7003;62867;52.038;29.256;2022-11-20T17:59:07;32.2;23.8;13.4
74434;PMS7003;62867;52.038;29.256;2022-11-20T18:04:16;31.6;23.6;13
74434;PMS7003;62867;52.038;29.256;2022-11-20T18:09:26;28.6;21.2;12
74434;PMS7003;62867;52.038;29.256;2022-11-20T18:14:16;32;24.6;14.4
74434;PMS7003;62867;52.038;29.256;2022-11-20T18:19:50;29.4;23.6;12.2
74434;PMS7003;62867;52.038;29.256;2022-11-20T18:24:14;35.6;25.4;14
74434;PMS7003;62867;52.038;29.256;2022-11-20T18:29:16;28.8;20.6;11.4
74434;PMS7003;62867;52.038;29.256;2022-11-20T18:34:16;31.2;23.6;14.4
74434;PMS7003;62867;52.038;29.256;2022-11-20T18:39:15;32.2;26.2;14.2
74434;PMS7003;62867;52.038;29.256;2022-11-20T18:44:10;32;24.5;13.5
74434;PMS7003;62867;52.038;29.256;2022-11-20T18:49:08;33;23.6;14.4
74434;PMS7003;62867;52.038;29.256;2022-11-20T18:54:07;36.4;27.2;14.8
74434;PMS7003;62867;52.038;29.256;2022-11-20T18:59:07;30.6;23;12.8
74434;PMS7003;62867;52.038;29.256;2022-11-20T19:04:07;24;19.8;11
74434;PMS7003;62867;52.038;29.256;2022-11-20T19:09:17;28.2;22;12.4
74434;PMS7003;62867;52.038;29.256;2022-11-20T19:14:17;31.4;23;13
74434;PMS7003;62867;52.038;29.256;2022-11-20T19:19:16;29.8;23;12.6
74434;PMS7003;62867;52.038;29.256;2022-11-20T19:24:07;29;21;12
74434;PMS7003;62867;52.038;29.256;2022-11-20T19:29:06;32.2;22.6;13
74434;PMS7003;62867;52.038;29.256;2022-11-20T19:34:14;29;23;12
74434;PMS7003;62867;52.038;29.256;2022-11-20T19:39:07;33.6;24.8;13.4
74434;PMS7003;62867;52.038;29.256;2022-11-20T19:44:07;27.8;21.3;12.5
74434;PMS7003;62867;52.038;29.256;2022-11-20T19:49:07;31.6;24;12.6
74434;PMS7003;62867;52.038;29.256;2022-11-20T19:54:26;33.2;22.4;13.4
74434;PMS7003;62867;52.038;29.256;2022-11-20T19:59:07;28.8;21.6;11.2
74434;PMS7003;62867;52.038;29.256;2022-11-20T20:04:17;29.6;22.6;12.2
74434;PMS7003;62867;52.038;29.256;2022-11-20T20:09:15;28.8;22.4;11.6
74434;PMS7003;62867;52.038;29.256;2022-11-20T20:14:24;30.6;21.8;13
74434;PMS7003;62867;52.038;29.256;2022-11-20T20:19:38;28.6;22;11.8
74434;PMS7003;62867;52.038;29.256;2022-11-20T20:24:07;29.8;19.2;11.6
74434;PMS7003;62867;52.038;29.256;2022-11-20T20:29:06;29.6;23.2;12.2
74434;PMS7003;62867;52.038;29.256;2022-11-20T20:34:16;27.8;22.6;12.8
74434;PMS7003;62867;52.038;29.256;2022-11-20T20:39:14;30.2;22;12
74434;PMS7003;62867;52.038;29.256;2022-11-20T20:44:06;27;21;12.8
74434;PMS7003;62867;52.038;29.256;2022-11-20T20:49:27;26.8;21;11.5
74434;PMS7003;62867;52.038;29.256;2022-11-20T20:54:06;26.4;20.8;11.2
74434;PMS7003;62867;52.038;29.256;2022-11-20T20:59:30;30.4;21.8;11.2
74434;PMS7003;62867;52.038;29.256;2022-11-20T21:04:07;29.2;21.8;11.2
74434;PMS7003;62867;52.038;29.256;2022-11-20T21:09:07;26.6;21.4;12.8
74434;PMS7003;62867;52.038;29.256;2022-11-20T21:14:19;28;22.4;11.4
74434;PMS7003;62867;52.038;29.256;2022-11-20T21:19:16;28.2;21;11.8
74434;PMS7003;62867;52.038;29.256;2022-11-20T21:24:07;29.4;24.4;12.6
74434;PMS7003;62867;52.038;29.256;2022-11-20T21:29:14;24.8;20.6;12.6
74434;PMS7003;62867;52.038;29.256;2022-11-20T21:34:09;28;21.8;10.4
74434;PMS7003;62867;52.038;29.256;2022-11-20T21:39:08;26.2;21;11.2
74434;PMS7003;62867;52.038;29.256;2022-11-20T21:44:17;25;20.6;11.2
74434;PMS7003;62867;52.038;29.256;2022-11-20T21:49:07;25;18.8;8.5
74434;PMS7003;62867;52.038;29.256;2022-11-20T21:54:08;25;19.2;10.4
74434;PMS7003;62867;52.038;29.256;2022-11-20T21:59:03;29;21;12.2
74434;PMS7003;62867;52.038;29.256;2022-11-20T22:04:03;25.6;19.2;11.4
74434;PMS7003;62867;52.038;29.256;2022-11-20T22:09:03;29.8;21.8;11.6
74434;PMS7003;62867;52.038;29.256;2022-11-20T22:14:03;25.6;20.8;10.8
74434;PMS7003;62867;52.038;29.256;2022-11-20T22:19:11;25.4;19.4;11.4
74434;PMS7003;62867;52.038;29.256;2022-11-20T22:24:03;24.6;18.2;11.8
74434;PMS7003;62867;52.038;29.256;2022-11-20T22:29:13;25.8;20.2;10
74434;PMS7003;62867;52.038;29.256;2022-11-20T22:34:03;29.2;20.6;11
74434;PMS7003;62867;52.038;29.256;2022-11-20T22:39:13;29.8;20.8;11.6
74434;PMS7003;62867;52.038;29.256;2022-11-20T22:44:11;29.2;20.6;12.2
74434;PMS7003;62867;52.038;29.256;2022-11-20T22:49:11;29.8;21.3;10.8
74434;PMS7003;62867;52.038;29.256;2022-11-20T22:54:03;28;19.6;11
74434;PMS7003;62867;52.038;29.256;2022-11-20T22:59:03;25.4;19.2;10.6
74434;PMS7003;62867;52.038;29.256;2022-11-20T23:04:13;29.6;23.2;12.4
74434;PMS7003;62867;52.038;29.256;2022-11-20T23:09:11;32.2;23;12
74434;PMS7003;62867;52.038;29.256;2022-11-20T23:14:12;29.2;23;12.8
74434;PMS7003;62867;52.038;29.256;2022-11-20T23:19:03;29.4;21.8;12.2
74434;PMS7003;62867;52.038;29.256;2022-11-20T23:24:03;28.6;20.8;12.2
74434;PMS7003;62867;52.038;29.256;2022-11-20T23:29:11;30.2;23.8;12.4
74434;PMS7003;62867;52.038;29.256;2022-11-20T23:34:03;29.2;21.8;12.8
74434;PMS7003;62867;52.038;29.256;2022-11-20T23:39:03;29.8;22.8;12.6
74434;PMS7003;62867;52.038;29.256;2022-11-20T23:44:13;37;26.4;13.8
74434;PMS7003;62867;52.038;29.256;2022-11-20T23:49:13;30.3;25.5;13
74434;PMS7003;62867;52.038;29.256;2022-11-20T23:54:03;29;21.4;12
74434;PMS7003;62867;52.038;29.256;2022-11-20T23:59:13;32.8;25;14.2
